^^

Nearby METAR Reports

 

EGHH - Bournemouth Airp, United Kingdom
Distance from station: S 10mi, 17km
Updated: 15/10/2018 23:20
Fog, Overcast
Fog, Overcast
 Wind from NE
Wind: NE 5 mph , 7 km/h
Temperature: 13°C
Dew Point: 13°C
Humidity: 100%
Barometer: 1014 hPa
Summary: Fog
Clouds: Overcast
Visibility: 0 mile , 1 km
Cloud details: Overcast 30 m
2018/10/15 22:20 EGHH 152220Z 04004KT 0800 FG OVC001 13/13 Q1014
EGDM - Boscombe Down, United Kingdom
Distance from station: N 16mi, 26km
Updated: 15/10/2018 23:50
Fog
Fog
 Wind from E
Wind: E 7 mph , 11 km/h
Temperature: 12°C
Dew Point: 12°C
Humidity: 100%
Barometer: 1014 hPa
Summary: Fog
Visibility: 0 mile , 0 km
2018/10/15 22:50 EGDM 152250Z AUTO 10006KT 0100 FG VV/// 12/12 Q1014
 
EGVP - Middle Wallop, United Kingdom
Distance from station: NE 17mi, 27km
Updated: 15/10/2018 23:50

 Wind from E
Wind: E 5 mph , 7 km/h
Temperature: 12°C
Dew Point: 12°C
Humidity: 100%
Barometer: 1014 hPa
Visibility: 0 mile , 0 km
2018/10/15 22:50 EGVP 152250Z AUTO 08004KT 0150 // VV/// 12/12 Q1014
EGHI - Southampton Wx C, United Kingdom
Distance from station: E 19mi, 31km
Updated: 15/10/2018 22:20
NOT Current
Overcast
Overcast
 Wind from varies
Wind: varies 3 mph , 6 km/h
Temperature: 13°C
Dew Point: 12°C
Humidity: 94%
Barometer: 1014 hPa
Clouds: Overcast
Visibility: 3 miles , 5 km
Cloud details: Overcast 122 m
2018/10/15 21:20 EGHI 152120Z VRB03KT 5000 OVC004 13/12 Q1014
 
EGDY - Yeovilton (navy), United Kingdom
Distance from station: W 36mi, 58km
Updated: 15/10/2018 23:50
Mist, Overcast
Mist, Overcast
 Wind from N
Wind: N 7 mph , 11 km/h
Temperature: 13°C
Dew Point: 12°C
Humidity: 94%
Barometer: 1014 hPa
Summary: Mist
Clouds: Overcast
Visibility: 3 miles , 5 km
Cloud details: Overcast 183 m
2018/10/15 22:50 EGDY 152250Z AUTO 36006KT 4900 BR OVC006/// 13/12 Q1014
EGUO - Colerne Raf, United Kingdom
Distance from station: NNW 41mi, 66km
Updated: 21/03/2018 08:50
NOT Current
Clear
Clear
 Wind from W
Wind: W 6 mph , 9 km/h
Temperature: 5°C
Wind Chill: 3°C
Dew Point: 1°C
Humidity: 76%
Barometer: 1032 hPa
Clouds: Clear
Visibility: 6 miles , 10 km
2018/03/21 08:50 EGUO 210850Z 27005KT 9999 NCD 05/01 Q1032 BLU NOSIG
 
EGVO - Odiham Raf, United Kingdom
Distance from station: ENE 42mi, 68km
Updated: 15/10/2018 23:50
Fog
Fog
 Wind from E
Wind: E 5 mph , 7 km/h
Temperature: 13°C
Dew Point: 13°C
Humidity: 100%
Barometer: 1014 hPa
Summary: Fog
Visibility: 0 mile , 0 km
2018/10/15 22:50 EGVO 152250Z 09004KT 0100 FG VV/// 13/13 Q1014 RED
EGGD - Bristol/Lulsgate, United Kingdom
Distance from station: NW 50mi, 81km
Updated: 16/10/2018 00:20
Fog
Fog
 Wind from ENE
Wind: ENE 6 mph , 9 km/h
Temperature: 11°C
Dew Point: 11°C
Humidity: 100%
Barometer: 1014 hPa
Summary: Fog
Visibility: 0 mile , 0 km
2018/10/15 23:20 EGGD 152320Z AUTO 07005KT 0100 R27/0375 FG VV/// 11/11 Q1014